createdAt,value
2017-10-28T00:01:00.310Z,9.60
2017-10-28T00:03:27.905Z,9.60
2017-10-28T00:05:56.253Z,9.50
2017-10-28T00:08:23.794Z,9.50
2017-10-28T00:10:51.392Z,9.60
2017-10-28T00:13:19.116Z,9.60
2017-10-28T00:15:46.730Z,9.70
2017-10-28T00:18:14.428Z,9.70
2017-10-28T00:20:42.751Z,9.60
2017-10-28T00:23:10.324Z,9.60
2017-10-28T00:25:37.910Z,9.60
2017-10-28T00:28:06.265Z,9.40
2017-10-28T00:30:39.540Z,9.40
2017-10-28T00:33:12.894Z,9.40
2017-10-28T00:35:45.991Z,9.30
2017-10-28T00:38:13.569Z,9.30
2017-10-28T00:40:41.167Z,9.30
2017-10-28T00:43:08.731Z,9.30
2017-10-28T00:45:36.540Z,9.20
2017-10-28T00:48:04.143Z,9.20
2017-10-28T00:50:31.772Z,9.30
2017-10-28T00:52:59.364Z,9.40
2017-10-28T00:55:27.082Z,9.50
2017-10-28T00:57:54.663Z,9.50
2017-10-28T01:00:22.230Z,9.50
2017-10-28T01:02:49.903Z,9.50
2017-10-28T01:05:17.468Z,9.60
2017-10-28T01:07:45.058Z,9.60
2017-10-28T01:10:12.635Z,9.60
2017-10-28T01:12:40.967Z,9.70
2017-10-28T01:15:08.630Z,9.70
2017-10-28T01:17:36.186Z,9.70
2017-10-28T01:20:03.782Z,9.70
2017-10-28T01:22:31.335Z,9.70
2017-10-28T01:24:58.924Z,9.60
2017-10-28T01:27:26.515Z,9.60
2017-10-28T01:29:54.094Z,9.60
2017-10-28T01:32:21.682Z,9.60
2017-10-28T01:34:49.237Z,9.60
2017-10-28T01:37:16.869Z,9.60
2017-10-28T01:39:44.543Z,9.60
2017-10-28T01:42:12.102Z,9.60
2017-10-28T01:44:39.650Z,9.70
2017-10-28T01:47:07.221Z,9.80
2017-10-28T01:49:34.808Z,9.80
2017-10-28T01:52:02.385Z,9.70
2017-10-28T01:54:30.806Z,9.70
2017-10-28T01:56:58.408Z,9.70
2017-10-28T01:59:25.972Z,9.60
2017-10-28T02:01:53.535Z,9.70
2017-10-28T02:04:21.126Z,9.70
2017-10-28T02:06:48.742Z,9.70
2017-10-28T02:09:16.339Z,9.70
2017-10-28T02:11:44.067Z,9.70
2017-10-28T02:14:11.631Z,9.60
2017-10-28T02:16:39.219Z,9.60
2017-10-28T02:19:06.794Z,9.60
2017-10-28T02:21:34.365Z,9.60
2017-10-28T02:24:02.034Z,9.60
2017-10-28T02:26:30.370Z,9.60
2017-10-28T02:28:57.946Z,9.60
2017-10-28T02:31:25.493Z,9.60
2017-10-28T02:33:53.087Z,9.50
2017-10-28T02:36:21.437Z,9.40
2017-10-28T02:38:49.070Z,9.40
2017-10-28T02:41:16.655Z,9.30
2017-10-28T02:43:44.238Z,9.20
2017-10-28T02:46:11.814Z,9.20
2017-10-28T02:48:39.378Z,9.20
2017-10-28T02:51:07.736Z,9.40
2017-10-28T02:53:35.298Z,9.30
2017-10-28T02:56:02.882Z,9.40
2017-10-28T02:58:31.245Z,9.50
2017-10-28T03:00:58.823Z,9.40
2017-10-28T03:03:26.466Z,9.50
2017-10-28T03:05:54.811Z,9.50
2017-10-28T03:08:22.442Z,9.50
2017-10-28T03:10:50.752Z,9.60
2017-10-28T03:13:18.535Z,9.60
2017-10-28T03:15:46.083Z,9.60
2017-10-28T03:18:13.686Z,9.60
2017-10-28T03:20:41.282Z,9.60
2017-10-28T03:23:09.603Z,9.60
2017-10-28T03:25:37.211Z,9.60
2017-10-28T03:28:04.954Z,9.60
2017-10-28T03:30:32.765Z,9.60
2017-10-28T03:33:00.346Z,9.70
2017-10-28T03:35:27.913Z,9.80
2017-10-28T03:37:55.506Z,9.70
2017-10-28T03:40:23.081Z,9.70
2017-10-28T03:42:50.665Z,9.70
2017-10-28T03:45:19.007Z,9.60
2017-10-28T03:47:46.586Z,9.50
2017-10-28T03:50:14.979Z,9.40
2017-10-28T03:52:43.306Z,9.40
2017-10-28T03:55:11.061Z,9.40
2017-10-28T03:57:38.629Z,9.40
2017-10-28T04:00:06.287Z,9.40
2017-10-28T04:02:33.970Z,9.30
2017-10-28T04:05:01.643Z,9.30
2017-10-28T04:07:29.387Z,9.30
2017-10-28T04:09:56.983Z,9.30
2017-10-28T04:12:24.544Z,9.30
2017-10-28T04:14:52.934Z,9.20
2017-10-28T04:17:20.515Z,9.20
2017-10-28T04:19:48.105Z,9.20
2017-10-28T04:22:15.660Z,9.10
2017-10-28T04:24:43.237Z,9.00
2017-10-28T04:27:10.797Z,9.00
2017-10-28T04:29:38.755Z,8.90
2017-10-28T04:32:06.367Z,8.90
2017-10-28T04:34:35.524Z,8.80
2017-10-28T04:37:03.150Z,8.80
2017-10-28T04:39:31.474Z,8.80
2017-10-28T04:41:59.082Z,8.70
2017-10-28T04:44:26.682Z,8.70
2017-10-28T04:46:54.254Z,8.80
2017-10-28T04:49:21.948Z,8.70
2017-10-28T04:51:49.500Z,8.60
2017-10-28T04:54:17.095Z,8.50
2017-10-28T04:56:44.666Z,8.40
2017-10-28T04:59:12.995Z,8.20
2017-10-28T05:01:40.583Z,8.20
2017-10-28T05:04:08.967Z,8.10
2017-10-28T05:06:36.703Z,8.10
2017-10-28T05:09:04.340Z,8.10
2017-10-28T05:11:33.028Z,8.10
2017-10-28T05:14:00.620Z,8.10
2017-10-28T05:16:28.297Z,7.90
2017-10-28T05:18:55.959Z,8.00
2017-10-28T05:21:23.555Z,7.90
2017-10-28T05:23:51.126Z,7.90
2017-10-28T05:26:19.295Z,7.80
2017-10-28T05:28:46.959Z,7.90
2017-10-28T05:31:14.578Z,8.00
2017-10-28T05:33:42.193Z,8.00
2017-10-28T05:36:09.808Z,7.90
2017-10-28T05:38:37.362Z,7.90
2017-10-28T05:41:04.930Z,7.90
2017-10-28T05:43:32.478Z,8.00
2017-10-28T05:46:00.963Z,8.00
2017-10-28T05:48:28.564Z,8.00
2017-10-28T05:50:56.950Z,8.00
2017-10-28T05:53:24.551Z,7.90
2017-10-28T05:55:52.111Z,8.00
2017-10-28T05:58:19.698Z,8.00
2017-10-28T06:00:47.261Z,8.10
2017-10-28T06:03:14.864Z,8.10
2017-10-28T06:05:42.427Z,8.10
2017-10-28T06:08:10.795Z,8.30
2017-10-28T06:10:41.114Z,8.30
2017-10-28T06:13:08.679Z,8.40
2017-10-28T06:15:37.035Z,8.50
2017-10-28T06:18:04.639Z,8.50
2017-10-28T06:20:33.003Z,8.50
2017-10-28T06:23:01.365Z,8.60
2017-10-28T06:25:28.966Z,8.50
2017-10-28T06:27:57.299Z,8.50
2017-10-28T06:30:24.894Z,8.50
2017-10-28T06:32:52.486Z,8.50
2017-10-28T06:35:20.853Z,8.60
2017-10-28T06:37:49.279Z,8.50
2017-10-28T06:40:16.895Z,8.50
2017-10-28T06:42:44.465Z,8.50
2017-10-28T06:45:12.942Z,8.60
2017-10-28T06:47:41.283Z,8.70
2017-10-28T06:50:08.874Z,8.60
2017-10-28T06:52:36.474Z,8.70
2017-10-28T06:55:04.046Z,8.90
2017-10-28T06:57:31.743Z,9.00
2017-10-28T06:59:59.350Z,9.10
2017-10-28T07:02:27.699Z,9.20
2017-10-28T07:04:56.073Z,9.20
2017-10-28T07:07:23.672Z,9.20
2017-10-28T07:09:52.024Z,9.30
2017-10-28T07:12:19.692Z,9.30
2017-10-28T07:14:47.258Z,9.40
2017-10-28T07:17:14.846Z,9.40
2017-10-28T07:19:42.411Z,9.50
2017-10-28T07:22:10.741Z,9.60
2017-10-28T07:24:38.296Z,9.50
2017-10-28T07:27:05.869Z,9.60
2017-10-28T07:29:33.423Z,9.60
2017-10-28T07:32:01.005Z,9.60
2017-10-28T07:34:28.594Z,9.60
2017-10-28T07:36:57.053Z,9.70
2017-10-28T07:39:24.680Z,9.70
2017-10-28T07:41:52.255Z,9.80
2017-10-28T07:44:19.823Z,9.80
2017-10-28T07:46:47.408Z,9.90
2017-10-28T07:49:14.966Z,9.90
2017-10-28T07:51:42.539Z,9.90
2017-10-28T07:54:10.902Z,10.00
2017-10-28T07:56:39.319Z,10.00
2017-10-28T07:59:07.656Z,10.00
2017-10-28T08:01:35.218Z,9.90
2017-10-28T08:04:08.457Z,10.00
2017-10-28T08:06:36.797Z,10.00
2017-10-28T08:09:04.824Z,10.00
2017-10-28T08:11:32.391Z,10.00
2017-10-28T08:13:59.966Z,10.00
2017-10-28T08:16:27.798Z,10.00
2017-10-28T08:18:55.368Z,10.10
2017-10-28T08:21:22.985Z,10.10
2017-10-28T08:23:50.547Z,10.10
2017-10-28T08:26:18.226Z,10.10
2017-10-28T08:28:45.871Z,10.20
2017-10-28T08:31:13.469Z,10.20
2017-10-28T08:33:42.633Z,10.30
2017-10-28T08:36:10.332Z,10.30
2017-10-28T08:38:38.682Z,10.40
2017-10-28T08:41:19.087Z,10.50
2017-10-28T08:43:47.650Z,10.50
2017-10-28T08:46:16.313Z,10.60
2017-10-28T08:48:44.788Z,10.70
2017-10-28T08:51:12.441Z,10.70
2017-10-28T08:53:40.815Z,10.80
2017-10-28T08:56:08.603Z,10.70
2017-10-28T08:58:36.167Z,10.60
2017-10-28T09:01:03.751Z,10.60
2017-10-28T09:03:31.376Z,10.60
2017-10-28T09:05:58.972Z,10.60
2017-10-28T09:08:26.578Z,10.60
2017-10-28T09:10:54.255Z,10.70
2017-10-28T09:13:21.895Z,10.60
2017-10-28T09:15:51.309Z,10.70
2017-10-28T09:18:19.033Z,10.70
2017-10-28T09:20:46.606Z,10.80
2017-10-28T09:23:14.524Z,10.80
2017-10-28T09:25:42.991Z,10.80
2017-10-28T09:28:10.851Z,10.80
2017-10-28T09:30:39.483Z,10.80
2017-10-28T09:33:08.092Z,10.70
2017-10-28T09:35:35.675Z,10.80
2017-10-28T09:38:04.158Z,10.90
2017-10-28T09:40:32.681Z,10.90
2017-10-28T09:43:00.303Z,10.90
2017-10-28T09:45:28.663Z,10.90
2017-10-28T09:47:57.182Z,11.00
2017-10-28T09:50:25.083Z,11.00
2017-10-28T09:52:52.683Z,11.10
2017-10-28T09:55:20.299Z,11.10
2017-10-28T09:57:47.902Z,11.20
2017-10-28T10:00:15.623Z,11.20
2017-10-28T10:02:43.227Z,11.20
2017-10-28T10:05:11.795Z,11.10
2017-10-28T10:07:39.372Z,11.10
2017-10-28T10:10:07.764Z,11.00
2017-10-28T10:12:35.363Z,11.00
2017-10-28T10:15:02.979Z,11.00
2017-10-28T10:17:30.562Z,11.10
2017-10-28T10:19:58.147Z,11.10
2017-10-28T10:22:25.844Z,11.10
2017-10-28T10:24:53.412Z,11.00
2017-10-28T10:27:21.756Z,11.00
2017-10-28T10:29:49.340Z,11.00
2017-10-28T10:32:16.926Z,10.90
2017-10-28T10:34:45.309Z,11.00
2017-10-28T10:37:12.867Z,11.00
2017-10-28T10:39:41.235Z,10.90
2017-10-28T10:42:08.806Z,10.90
2017-10-28T10:44:37.164Z,11.00
2017-10-28T10:47:04.716Z,11.00
2017-10-28T10:49:33.535Z,10.90
2017-10-28T10:52:01.092Z,10.90
2017-10-28T10:54:28.652Z,11.00
2017-10-28T10:56:56.230Z,11.00
2017-10-28T10:59:24.574Z,11.00
2017-10-28T11:01:52.322Z,11.00
2017-10-28T11:04:19.935Z,11.00
2017-10-28T11:06:48.292Z,11.00
2017-10-28T11:09:16.765Z,11.00
2017-10-28T11:11:44.372Z,11.00
2017-10-28T11:14:12.728Z,11.00
2017-10-28T11:16:40.635Z,11.00
2017-10-28T11:19:08.231Z,11.00
2017-10-28T11:21:35.815Z,11.00
2017-10-28T11:24:03.399Z,11.00
2017-10-28T11:26:31.735Z,11.00
2017-10-28T11:28:59.345Z,11.10
2017-10-28T11:31:27.678Z,11.00
2017-10-28T11:33:55.239Z,11.00
2017-10-28T11:36:22.808Z,11.00
2017-10-28T11:38:50.400Z,11.00
2017-10-28T11:41:17.990Z,10.90
2017-10-28T11:43:45.566Z,10.90
2017-10-28T11:46:13.146Z,11.00
2017-10-28T11:48:40.748Z,11.00
2017-10-28T11:51:08.367Z,11.00
2017-10-28T11:53:35.972Z,11.00
2017-10-28T11:56:03.522Z,11.10
2017-10-28T11:58:31.921Z,11.20
2017-10-28T12:01:00.287Z,11.10
2017-10-28T12:03:28.014Z,11.10
2017-10-28T12:05:55.612Z,11.20
2017-10-28T12:08:23.941Z,11.40
2017-10-28T12:10:51.520Z,11.40
2017-10-28T12:13:19.167Z,11.40
2017-10-28T12:15:46.822Z,11.40
2017-10-28T12:18:14.406Z,11.50
2017-10-28T12:20:41.984Z,11.50
2017-10-28T12:23:09.615Z,11.50
2017-10-28T12:25:37.325Z,11.50
2017-10-28T12:28:04.904Z,11.50
2017-10-28T12:30:33.283Z,11.40
2017-10-28T12:33:01.614Z,11.40
2017-10-28T12:35:29.220Z,11.40
2017-10-28T12:37:57.551Z,11.40
2017-10-28T12:40:25.203Z,11.40
2017-10-28T12:42:52.828Z,11.50
2017-10-28T12:45:21.206Z,11.50
2017-10-28T12:47:48.849Z,11.40
2017-10-28T12:50:16.432Z,11.40
2017-10-28T12:52:44.035Z,11.40
2017-10-28T12:55:11.637Z,11.40
2017-10-28T12:57:40.059Z,11.30
2017-10-28T13:00:08.414Z,11.30
2017-10-28T13:02:36.134Z,11.30
2017-10-28T13:05:03.711Z,11.30
2017-10-28T13:07:31.284Z,11.40
2017-10-28T13:09:58.862Z,11.40
2017-10-28T13:12:26.467Z,11.40
2017-10-28T13:14:54.034Z,11.30
2017-10-28T13:17:21.609Z,11.40
2017-10-28T13:19:49.383Z,11.40
2017-10-28T13:22:16.941Z,11.40
2017-10-28T13:24:44.508Z,11.40
2017-10-28T13:27:12.103Z,11.50
2017-10-28T13:29:39.665Z,11.50
2017-10-28T13:32:08.004Z,11.50
2017-10-28T13:34:35.793Z,11.50
2017-10-28T13:37:03.403Z,11.60
2017-10-28T13:39:31.005Z,11.60
2017-10-28T13:41:58.764Z,11.70
2017-10-28T13:44:26.335Z,11.60
2017-10-28T13:46:54.006Z,11.60
2017-10-28T13:49:21.598Z,11.50
2017-10-28T13:51:49.270Z,11.50
2017-10-28T13:54:16.845Z,11.50
2017-10-28T13:56:44.432Z,11.40
2017-10-28T13:59:11.986Z,11.40
2017-10-28T14:01:40.334Z,11.40
2017-10-28T14:04:07.928Z,11.40
2017-10-28T14:06:36.273Z,11.40
2017-10-28T14:09:03.832Z,11.40
2017-10-28T14:11:31.387Z,11.40
2017-10-28T14:13:59.102Z,11.30
2017-10-28T14:16:26.690Z,11.30
2017-10-28T14:18:54.270Z,11.40
2017-10-28T14:21:21.808Z,11.30
2017-10-28T14:23:49.402Z,11.30
2017-10-28T14:26:16.984Z,11.30
2017-10-28T14:28:45.376Z,11.20
2017-10-28T14:31:13.775Z,11.20
2017-10-28T14:33:41.355Z,11.20
2017-10-28T14:36:08.958Z,11.30
2017-10-28T14:38:36.581Z,11.30
2017-10-28T14:41:04.714Z,11.30
2017-10-28T14:43:33.066Z,11.30
2017-10-28T14:46:00.650Z,11.20
2017-10-28T14:48:29.026Z,11.20
2017-10-28T14:50:56.646Z,11.20
2017-10-28T14:53:24.240Z,11.20
2017-10-28T14:55:52.609Z,11.20
2017-10-28T14:58:20.235Z,11.20
2017-10-28T15:00:47.844Z,11.20
2017-10-28T15:03:15.414Z,11.20
2017-10-28T15:05:43.010Z,11.20
2017-10-28T15:08:10.632Z,11.20
2017-10-28T15:10:49.921Z,11.20
2017-10-28T15:13:17.501Z,11.30
2017-10-28T15:15:45.115Z,11.30
2017-10-28T15:18:13.441Z,11.30
2017-10-28T15:20:41.042Z,11.20
2017-10-28T15:23:08.615Z,11.20
2017-10-28T15:25:36.996Z,11.20
2017-10-28T15:28:05.368Z,11.20
2017-10-28T15:30:32.996Z,11.20
2017-10-28T15:33:00.620Z,11.20
2017-10-28T15:35:28.195Z,11.20
2017-10-28T15:37:55.747Z,11.20
2017-10-28T15:40:23.359Z,11.20
2017-10-28T15:42:51.075Z,11.20
2017-10-28T15:45:18.635Z,11.20
2017-10-28T15:47:46.246Z,11.20
2017-10-28T15:50:13.798Z,11.30
2017-10-28T15:52:41.379Z,11.20
2017-10-28T15:55:09.005Z,11.20
2017-10-28T15:57:36.550Z,11.20
2017-10-28T16:00:04.139Z,11.20
2017-10-28T16:02:31.702Z,11.20
2017-10-28T16:04:59.404Z,11.20
2017-10-28T16:07:26.972Z,11.30
2017-10-28T16:09:54.549Z,11.30
2017-10-28T16:12:22.132Z,11.30
2017-10-28T16:14:50.487Z,11.30
2017-10-28T16:17:18.058Z,11.30
2017-10-28T16:19:45.655Z,11.30
2017-10-28T16:22:13.235Z,11.30
2017-10-28T16:24:40.829Z,11.30
2017-10-28T16:27:08.439Z,11.30
2017-10-28T16:29:36.020Z,11.30
2017-10-28T16:32:03.601Z,11.40
2017-10-28T16:34:31.236Z,11.30
2017-10-28T16:36:58.849Z,11.30
2017-10-28T16:39:26.438Z,11.30
2017-10-28T16:41:54.792Z,11.30
2017-10-28T16:44:22.420Z,11.30
2017-10-28T16:46:50.014Z,11.30
2017-10-28T16:49:18.345Z,11.30
2017-10-28T16:51:45.953Z,11.30
2017-10-28T16:54:13.569Z,11.30
2017-10-28T16:56:41.543Z,11.20
2017-10-28T16:59:09.139Z,11.20
2017-10-28T17:01:36.723Z,11.20
2017-10-28T17:04:04.409Z,11.20
2017-10-28T17:06:31.970Z,11.10
2017-10-28T17:09:00.165Z,11.10
2017-10-28T17:11:28.520Z,11.10
2017-10-28T17:13:56.181Z,11.10
2017-10-28T17:16:23.887Z,11.10
2017-10-28T17:18:52.247Z,11.00
2017-10-28T17:21:19.839Z,11.00
2017-10-28T17:23:47.495Z,11.00
2017-10-28T17:26:15.087Z,11.00
2017-10-28T17:28:42.701Z,10.90
2017-10-28T17:31:10.303Z,11.00
2017-10-28T17:33:37.904Z,10.90
2017-10-28T17:36:06.380Z,10.90
2017-10-28T17:38:34.167Z,10.90
2017-10-28T17:41:02.559Z,10.90
2017-10-28T17:43:31.131Z,10.90
2017-10-28T17:45:58.772Z,10.90
2017-10-28T17:48:26.363Z,10.90
2017-10-28T17:50:53.946Z,10.90
2017-10-28T17:53:21.539Z,10.90
2017-10-28T17:55:49.174Z,10.90
2017-10-28T17:58:16.760Z,10.90
2017-10-28T18:00:45.161Z,11.00
2017-10-28T18:03:13.467Z,10.90
2017-10-28T18:05:42.770Z,11.00
2017-10-28T18:08:10.394Z,11.00
2017-10-28T18:10:37.990Z,11.00
2017-10-28T18:13:05.583Z,11.00
2017-10-28T18:15:33.209Z,11.00
2017-10-28T18:18:00.830Z,11.00
2017-10-28T18:20:28.414Z,11.00
2017-10-28T18:22:57.024Z,11.00
2017-10-28T18:25:24.738Z,11.00
2017-10-28T18:27:52.358Z,11.00
2017-10-28T18:30:19.957Z,11.00
2017-10-28T18:32:47.516Z,11.00
2017-10-28T18:35:15.111Z,11.10
2017-10-28T18:37:42.683Z,11.10
2017-10-28T18:40:10.301Z,11.10
2017-10-28T18:42:37.869Z,11.10
2017-10-28T18:45:05.422Z,11.20
2017-10-28T18:47:33.008Z,11.20
2017-10-28T18:50:00.750Z,11.20
2017-10-28T18:52:28.360Z,11.30
2017-10-28T18:54:56.116Z,11.20
2017-10-28T18:57:23.835Z,11.30
2017-10-28T18:59:51.533Z,11.30
2017-10-28T19:02:19.154Z,11.40
2017-10-28T19:04:47.512Z,11.50
2017-10-28T19:07:15.875Z,11.50
2017-10-28T19:09:43.447Z,11.60
2017-10-28T19:12:11.066Z,11.60
2017-10-28T19:14:38.619Z,11.60
2017-10-28T19:17:06.323Z,11.70
2017-10-28T19:19:33.919Z,11.70
2017-10-28T19:22:02.412Z,11.70
2017-10-28T19:24:30.147Z,11.60
2017-10-28T19:26:57.720Z,11.70
2017-10-28T19:29:26.075Z,11.70
2017-10-28T19:31:53.707Z,11.70
2017-10-28T19:34:21.297Z,11.70
2017-10-28T19:36:48.873Z,11.80
2017-10-28T19:39:16.467Z,11.80
2017-10-28T19:41:44.071Z,11.80
2017-10-28T19:44:12.531Z,11.80
2017-10-28T19:46:40.106Z,11.90
2017-10-28T19:49:07.850Z,11.90
2017-10-28T19:51:35.439Z,11.90
2017-10-28T19:54:03.023Z,11.90
2017-10-28T19:56:30.596Z,11.90
2017-10-28T19:58:58.957Z,12.00
2017-10-28T20:01:26.557Z,12.00
2017-10-28T20:03:54.125Z,12.00
2017-10-28T20:06:21.709Z,12.00
2017-10-28T20:08:49.266Z,12.00
2017-10-28T20:11:16.849Z,12.00
2017-10-28T20:13:44.440Z,12.10
2017-10-28T20:16:12.041Z,12.10
2017-10-28T20:18:39.656Z,12.10
2017-10-28T20:21:07.221Z,12.10
2017-10-28T20:23:35.588Z,12.10
2017-10-28T20:26:03.180Z,12.10
2017-10-28T20:28:31.639Z,12.20
2017-10-28T20:30:59.209Z,12.20
2017-10-28T20:33:26.990Z,12.20
2017-10-28T20:35:54.578Z,12.30
2017-10-28T20:38:22.157Z,12.30
2017-10-28T20:40:49.766Z,12.30
2017-10-28T20:43:18.120Z,12.30
2017-10-28T20:45:45.727Z,12.30
2017-10-28T20:48:13.313Z,12.30
2017-10-28T20:50:40.881Z,12.30
2017-10-28T20:53:08.466Z,12.30
2017-10-28T20:55:36.108Z,12.30
2017-10-28T20:58:03.690Z,12.40
2017-10-28T21:00:31.304Z,12.40
2017-10-28T21:02:59.627Z,12.40
2017-10-28T21:05:28.107Z,12.40
2017-10-28T21:07:56.468Z,12.40
2017-10-28T21:10:24.051Z,12.40
2017-10-28T21:12:52.422Z,12.40
2017-10-28T21:15:20.762Z,12.30
2017-10-28T21:17:48.389Z,12.30
2017-10-28T21:20:15.984Z,12.40
2017-10-28T21:22:43.589Z,12.40
2017-10-28T21:25:11.954Z,12.40
2017-10-28T21:27:39.571Z,12.40
2017-10-28T21:30:07.196Z,12.50
2017-10-28T21:32:34.820Z,12.50
2017-10-28T21:35:02.435Z,12.60
2017-10-28T21:37:30.863Z,12.60
2017-10-28T21:39:58.435Z,12.60
2017-10-28T21:42:26.035Z,12.70
2017-10-28T21:44:53.606Z,12.70
2017-10-28T21:47:22.145Z,12.80
2017-10-28T21:49:49.752Z,12.80
2017-10-28T21:52:17.605Z,12.80
2017-10-28T21:54:45.961Z,12.70
2017-10-28T21:57:13.596Z,12.70
2017-10-28T21:59:41.187Z,12.70
2017-10-28T22:02:08.782Z,12.70
2017-10-28T22:04:37.090Z,12.70
2017-10-28T22:07:04.695Z,12.70
2017-10-28T22:09:32.276Z,12.60
2017-10-28T22:11:59.836Z,12.60
2017-10-28T22:14:29.110Z,12.60
2017-10-28T22:16:56.685Z,12.60
2017-10-28T22:19:24.295Z,12.60
2017-10-28T22:21:52.670Z,12.60
2017-10-28T22:24:23.445Z,12.60
2017-10-28T22:26:51.039Z,12.60
2017-10-28T22:29:18.633Z,12.60
2017-10-28T22:31:47.001Z,12.70
2017-10-28T22:34:15.335Z,12.70
2017-10-28T22:36:43.330Z,12.70
2017-10-28T22:39:11.116Z,12.70
2017-10-28T22:41:39.515Z,12.70
2017-10-28T22:44:07.176Z,12.70
2017-10-28T22:46:35.554Z,12.80
2017-10-28T22:49:03.143Z,12.80
2017-10-28T22:51:30.723Z,12.80
2017-10-28T22:53:58.314Z,12.90
2017-10-28T22:56:25.925Z,12.90
2017-10-28T22:58:53.596Z,12.90
2017-10-28T23:01:21.183Z,12.90
2017-10-28T23:03:48.763Z,12.90
2017-10-28T23:06:17.118Z,12.90
2017-10-28T23:08:44.719Z,12.90
2017-10-28T23:11:13.032Z,12.90
2017-10-28T23:13:40.622Z,12.90
2017-10-28T23:16:08.211Z,12.90
2017-10-28T23:18:36.599Z,12.90
2017-10-28T23:21:04.266Z,12.90
2017-10-28T23:23:32.789Z,12.90
2017-10-28T23:26:00.361Z,12.90
2017-10-28T23:28:27.951Z,12.90
2017-10-28T23:30:55.563Z,12.90
2017-10-28T23:33:23.150Z,12.90
2017-10-28T23:35:51.518Z,13.00
2017-10-28T23:38:19.125Z,13.00
2017-10-28T23:40:46.757Z,13.00
2017-10-28T23:43:14.324Z,13.00
2017-10-28T23:45:41.927Z,13.10
2017-10-28T23:48:10.279Z,13.10
2017-10-28T23:50:37.880Z,13.10
2017-10-28T23:53:05.496Z,13.10
2017-10-28T23:55:33.071Z,13.20
2017-10-28T23:58:00.646Z,13.20
